Time;durP1;ratioP1;P1;durP2;ratioP2;P2;SDS_P1;SDS_P2;PMS_P1;PMS_P2;Temp;Humidity;BMP_temperature;BMP_pressure;BME280_temperature;BME280_humidity;BME280_pressure;Samples;Min_cycle;Max_cycle;Signal;HPM_P1;HPM_P2
2023/04/01 00:01:48;;;;;;;13.57;2.63;;;;;;;9.08;100.00;99090.81;4993013;28;20030;-67
2023/04/01 00:04:15;;;;;;;7.80;2.22;;;;;;;9.07;100.00;99096.88;5215458;23;20032;-67
2023/04/01 00:06:40;;;;;;;7.15;2.90;;;;;;;9.05;100.00;99089.06;5194067;23;20118;-73
2023/04/01 00:09:06;;;;;;;7.97;2.50;;;;;;;9.06;100.00;99100.31;5320512;23;20572;-73
2023/04/01 00:11:32;;;;;;;10.07;2.30;;;;;;;9.05;100.00;99099.47;5092835;23;20514;-67
2023/04/01 00:16:27;;;;;;;8.40;2.63;;;;;;;9.05;100.00;99098.56;5129322;23;20054;-73
2023/04/01 00:18:52;;;;;;;10.80;3.28;;;;;;;9.08;100.00;99097.72;5352944;23;20061;-67
2023/04/01 00:21:20;;;;;;;8.68;3.20;;;;;;;9.05;100.00;99095.97;5153832;23;20659;-73
2023/04/01 00:23:46;;;;;;;8.60;3.20;;;;;;;9.04;100.00;99109.84;4946397;28;20113;-73
2023/04/01 00:26:11;;;;;;;11.02;3.20;;;;;;;9.05;100.00;99103.78;5235226;23;1084017;-73
2023/04/01 00:31:08;;;;;;;8.30;3.35;;;;;;;9.04;100.00;99102.91;5091664;23;20064;-74
2023/04/01 00:33:33;;;;;;;10.65;3.67;;;;;;;9.04;100.00;99102.91;4967416;28;20105;-73
2023/04/01 00:36:17;;;;;;;8.10;3.35;;;;;;;9.05;100.00;99101.16;5318044;23;20865;-67
2023/04/01 00:38:43;;;;;;;9.98;3.33;;;;;;;9.05;100.00;99112.44;5073345;23;20051;-73
2023/04/01 00:41:14;;;;;;;9.48;3.08;;;;;;;9.06;100.00;99110.72;4960803;28;20026;-73
2023/04/01 00:43:40;;;;;;;10.63;3.25;;;;;;;9.08;100.00;99116.78;4962569;28;20475;-73
2023/04/01 00:46:05;;;;;;;8.48;3.75;;;;;;;9.06;100.00;99110.72;4962412;28;20081;-73
2023/04/01 00:48:35;;;;;;;13.13;3.53;;;;;;;9.04;100.00;99110.72;4962664;28;20034;-73
2023/04/01 00:51:06;;;;;;;8.02;3.60;;;;;;;9.05;100.00;99116.75;4961972;28;20054;-73
2023/04/01 00:53:34;;;;;;;11.00;4.35;;;;;;;9.06;100.00;99121.09;4961502;28;21142;-73
2023/04/01 00:56:10;;;;;;;8.70;3.87;;;;;;;9.05;100.00;99124.56;4960919;28;20030;-73
2023/04/01 00:58:39;;;;;;;11.50;4.10;;;;;;;9.03;100.00;99129.75;4961088;28;20301;-67
2023/04/01 01:01:07;;;;;;;11.27;4.20;;;;;;;9.04;100.00;99130.63;4961045;28;20102;-67
2023/04/01 01:03:32;;;;;;;10.75;4.47;;;;;;;9.03;100.00;99131.50;4960504;28;20039;-66
2023/04/01 01:06:06;;;;;;;12.23;4.32;;;;;;;9.01;100.00;99133.22;4961549;28;20053;-67
2023/04/01 01:08:56;;;;;;;9.95;4.10;;;;;;;9.03;100.00;99131.50;4966127;28;20463;-67
2023/04/01 01:11:32;;;;;;;12.00;4.32;;;;;;;9.04;100.00;99131.50;4961016;28;20066;-67
2023/04/01 01:14:38;;;;;;;11.82;4.72;;;;;;;9.04;100.00;99134.09;4961601;28;20490;-67
2023/04/01 01:17:11;;;;;;;11.32;4.28;;;;;;;9.05;100.00;99137.53;4886097;28;20077;-67
2023/04/01 01:20:18;;;;;;;10.73;4.68;;;;;;;9.06;100.00;99136.69;4961349;28;20101;-67
2023/04/01 01:22:57;;;;;;;11.18;4.68;;;;;;;9.04;100.00;99136.69;4960672;28;20034;-67
2023/04/01 01:25:41;;;;;;;10.40;4.68;;;;;;;9.03;100.00;99136.69;4965101;28;20495;-67
2023/04/01 01:28:38;;;;;;;9.88;4.57;;;;;;;9.03;100.00;99136.69;4961459;28;20049;-67
2023/04/01 01:31:26;;;;;;;12.13;4.82;;;;;;;9.03;100.00;99141.88;4960708;28;20026;-67
2023/04/01 01:34:37;;;;;;;12.25;5.45;;;;;;;9.03;100.00;99142.75;4961866;28;20027;-67
2023/04/01 01:37:09;;;;;;;10.52;4.75;;;;;;;9.03;100.00;99144.47;4933520;28;20031;-67
2023/04/01 01:39:36;;;;;;;14.82;6.00;;;;;;;9.03;100.00;99144.47;4965210;28;20062;-67
2023/04/01 01:42:05;;;;;;;15.00;5.53;;;;;;;9.03;100.00;99149.69;4949200;28;20031;-67
2023/04/01 01:44:33;;;;;;;14.68;6.63;;;;;;;9.03;100.00;99154.88;4967470;28;20558;-67
2023/04/01 01:46:59;;;;;;;19.35;7.70;;;;;;;9.03;100.00;99155.72;4966315;28;20026;-67
2023/04/01 01:49:27;;;;;;;19.33;7.95;;;;;;;9.03;100.00;99157.47;4967057;28;20524;-67
2023/04/01 01:51:52;;;;;;;20.77;8.80;;;;;;;9.01;100.00;99156.63;4965393;28;20089;-68
2023/04/01 01:54:18;;;;;;;23.92;9.10;;;;;;;9.01;100.00;99156.63;4966967;28;20026;-67
2023/04/01 01:56:49;;;;;;;21.55;9.50;;;;;;;9.00;100.00;99163.53;4966155;28;21037;-67
2023/04/01 01:59:17;;;;;;;19.83;8.77;;;;;;;8.99;100.00;99156.63;4970092;28;20522;-67
2023/04/01 02:01:48;;;;;;;20.52;8.27;;;;;;;8.97;100.00;99165.25;4970480;28;20049;-67
2023/04/01 02:04:15;;;;;;;19.30;8.07;;;;;;;8.97;100.00;99173.03;4952526;28;20042;-67
2023/04/01 02:06:47;;;;;;;19.88;8.43;;;;;;;8.97;100.00;99178.25;4968819;28;20045;-67
2023/04/01 02:09:13;;;;;;;17.13;7.65;;;;;;;8.95;100.00;99174.75;4970072;28;20041;-67
2023/04/01 02:11:46;;;;;;;19.30;7.65;;;;;;;8.94;100.00;99183.44;4969940;28;20394;-67
2023/04/01 02:14:22;;;;;;;18.60;8.63;;;;;;;8.93;100.00;99181.69;4969611;28;20089;-67
2023/04/01 02:16:57;;;;;;;20.15;8.30;;;;;;;8.92;100.00;99185.13;4970009;28;20027;-67
2023/04/01 02:19:33;;;;;;;24.02;9.82;;;;;;;8.90;100.00;99185.13;4969538;28;20030;-67
2023/04/01 02:22:02;;;;;;;21.88;9.73;;;;;;;8.86;100.00;99181.69;4968730;28;20038;-67
2023/04/01 02:24:30;;;;;;;24.45;9.75;;;;;;;8.84;100.00;99188.56;4951604;28;20026;-67
2023/04/01 02:26:55;;;;;;;26.08;9.60;;;;;;;8.84;100.00;99185.97;4971020;28;20046;-73
2023/04/01 02:29:27;;;;;;;26.23;9.60;;;;;;;8.82;100.00;99182.53;4969989;28;20106;-72
2023/04/01 02:31:54;;;;;;;27.98;11.00;;;;;;;8.81;100.00;99185.97;4970265;28;20587;-72
2023/04/01 02:34:21;;;;;;;30.98;10.68;;;;;;;8.82;100.00;99187.72;4970891;28;20516;-72
2023/04/01 02:36:49;;;;;;;31.27;10.85;;;;;;;8.80;100.00;99184.22;4970903;28;20031;-72
2023/04/01 02:39:14;;;;;;;29.45;11.48;;;;;;;8.80;100.00;99185.97;4970325;28;20055;-72
2023/04/01 02:41:42;;;;;;;28.85;10.85;;;;;;;8.79;100.00;99181.63;4971065;28;20038;-72
2023/04/01 02:44:08;;;;;;;27.50;9.90;;;;;;;8.77;100.00;99192.00;4970001;28;20034;-72
2023/04/01 02:46:33;;;;;;;31.95;10.93;;;;;;;8.77;100.00;99191.16;4970047;28;20085;-72
2023/04/01 02:48:59;;;;;;;33.42;11.20;;;;;;;8.75;100.00;99185.97;4970676;28;20030;-72
2023/04/01 02:51:25;;;;;;;32.03;11.82;;;;;;;8.76;100.00;99186.81;4970076;28;20041;-72
2023/04/01 02:53:51;;;;;;;32.30;11.63;;;;;;;8.75;100.00;99193.75;4970421;28;20137;-72
2023/04/01 02:56:16;;;;;;;34.92;12.13;;;;;;;8.76;100.00;99192.91;5144392;23;20176;-72
2023/04/01 02:58:41;;;;;;;33.85;12.13;;;;;;;8.73;100.00;99194.59;4964628;28;20039;-72
2023/04/01 03:01:08;;;;;;;37.08;13.27;;;;;;;8.70;100.00;99193.72;4968297;28;20041;-72
2023/04/01 03:03:33;;;;;;;36.83;12.88;;;;;;;8.69;100.00;99204.97;4968480;28;20034;-72
2023/04/01 03:06:05;;;;;;;37.70;13.25;;;;;;;8.67;100.00;99211.00;4965352;28;20620;-73
2023/04/01 03:08:30;;;;;;;38.35;12.70;;;;;;;8.67;100.00;99211.00;4969415;28;20038;-73
2023/04/01 03:10:56;;;;;;;38.58;12.95;;;;;;;8.66;100.00;99202.38;4966552;28;20030;-73
2023/04/01 03:13:21;;;;;;;37.95;12.45;;;;;;;8.66;100.00;99202.38;4965859;28;20022;-73
2023/04/01 03:15:46;;;;;;;35.70;11.95;;;;;;;8.66;100.00;99215.34;4969737;28;20027;-72
2023/04/01 03:18:11;;;;;;;34.97;11.85;;;;;;;8.65;100.00;99216.19;4970148;28;20031;-73
2023/04/01 03:20:37;;;;;;;35.83;12.70;;;;;;;8.65;100.00;99217.94;4968619;28;20042;-73
2023/04/01 03:23:02;;;;;;;32.03;11.82;;;;;;;8.67;100.00;99218.81;4966547;28;20050;-73
2023/04/01 03:25:28;;;;;;;33.28;11.57;;;;;;;8.67;100.00;99224.00;4968764;28;20164;-72
2023/04/01 03:27:54;;;;;;;32.58;12.20;;;;;;;8.66;100.00;99224.84;4967887;28;20063;-73
2023/04/01 03:30:19;;;;;;;38.65;12.50;;;;;;;8.67;100.00;99224.00;4969155;28;20498;-72
2023/04/01 03:32:44;;;;;;;30.67;10.98;;;;;;;8.67;100.00;99226.59;4951222;28;20930;-72
2023/04/01 03:35:10;;;;;;;30.45;10.85;;;;;;;8.67;100.00;99226.59;4967449;28;20113;-72
2023/04/01 03:37:35;;;;;;;25.85;9.95;;;;;;;8.68;100.00;99230.94;4966974;28;20094;-73
2023/04/01 03:40:00;;;;;;;30.45;10.13;;;;;;;8.66;100.00;99238.72;4969146;28;20402;-72
2023/04/01 03:42:26;;;;;;;27.48;9.70;;;;;;;8.65;100.00;99226.59;4969699;28;20022;-72
2023/04/01 03:44:51;;;;;;;25.35;9.38;;;;;;;8.64;100.00;99235.22;4967825;28;20414;-73
2023/04/01 03:47:16;;;;;;;26.08;9.18;;;;;;;8.64;100.00;99231.78;4969337;28;20101;-72
2023/04/01 03:49:42;;;;;;;23.48;8.82;;;;;;;8.63;100.00;99235.22;4966572;28;20031;-73
2023/04/01 03:52:11;;;;;;;25.20;8.80;;;;;;;8.62;100.00;99233.50;4969074;28;20027;-73
2023/04/01 03:54:36;;;;;;;25.83;8.32;;;;;;;8.63;100.00;99235.22;4969812;28;20059;-72
2023/04/01 03:57:02;;;;;;;23.80;8.23;;;;;;;8.64;100.00;99242.16;4960311;28;20533;-72
2023/04/01 03:59:27;;;;;;;23.15;8.40;;;;;;;8.63;100.00;99245.59;4949579;28;20039;-72
2023/04/01 04:01:52;;;;;;;26.52;8.70;;;;;;;8.63;100.00;99243.00;4948352;28;20023;-73
2023/04/01 04:04:18;;;;;;;25.90;8.85;;;;;;;8.63;100.00;99243.00;4948468;28;20094;-72
2023/04/01 04:06:43;;;;;;;21.88;8.13;;;;;;;8.61;100.00;99245.59;4949801;28;20113;-67
2023/04/01 04:09:08;;;;;;;20.60;7.45;;;;;;;8.61;100.00;99252.53;4950043;28;20035;-67
2023/04/01 04:11:34;;;;;;;20.95;7.35;;;;;;;8.61;100.00;99257.72;4948324;28;20035;-67
2023/04/01 04:13:59;;;;;;;20.27;7.03;;;;;;;8.59;100.00;99265.50;4947738;28;20031;-67
2023/04/01 04:16:25;;;;;;;20.63;7.35;;;;;;;8.57;100.00;99262.00;4950077;28;20031;-67
2023/04/01 04:18:51;;;;;;;18.63;6.60;;;;;;;8.56;100.00;99264.59;4950100;28;20031;-67
2023/04/01 04:21:16;;;;;;;20.95;7.43;;;;;;;8.54;100.00;99264.59;4945657;28;20016;-66
2023/04/01 04:23:42;;;;;;;20.75;7.40;;;;;;;8.52;100.00;99266.31;4948833;28;20039;-66
2023/04/01 04:26:10;;;;;;;19.33;7.22;;;;;;;8.51;100.00;99272.38;4950532;28;20562;-67
2023/04/01 04:28:36;;;;;;;22.63;8.32;;;;;;;8.49;100.00;99272.34;4950197;28;20039;-67
2023/04/01 04:31:04;;;;;;;22.02;8.02;;;;;;;8.49;100.00;99274.94;4950083;28;20034;-67
2023/04/01 04:33:29;;;;;;;20.33;8.15;;;;;;;8.49;100.00;99276.69;4949338;28;20082;-67
2023/04/01 04:35:56;;;;;;;20.77;7.60;;;;;;;8.46;100.00;99277.53;4949412;28;20439;-67
2023/04/01 04:38:22;;;;;;;17.88;7.47;;;;;;;8.45;100.00;99282.72;4949876;28;20054;-66
2023/04/01 04:40:47;;;;;;;20.17;7.60;;;;;;;8.44;100.00;99281.81;4950108;28;20398;-67
2023/04/01 04:43:14;;;;;;;17.52;7.03;;;;;;;8.43;100.00;99289.56;4932420;28;20047;-67
2023/04/01 04:45:40;;;;;;;17.73;7.10;;;;;;;8.43;100.00;99281.78;4948979;28;20039;-66
2023/04/01 04:48:08;;;;;;;16.20;6.55;;;;;;;8.41;100.00;99292.16;4949344;28;20026;-67
2023/04/01 04:50:34;;;;;;;15.88;6.57;;;;;;;8.39;100.00;99286.09;4948286;28;20030;-67
2023/04/01 04:53:00;;;;;;;16.02;5.95;;;;;;;8.40;100.00;99294.75;4949700;28;20027;-67
2023/04/01 04:55:25;;;;;;;14.82;5.97;;;;;;;8.40;100.00;99295.63;4947529;28;20039;-67
2023/04/01 04:57:50;;;;;;;14.23;5.53;;;;;;;8.39;100.00;99304.28;4948542;28;20054;-67
2023/04/01 05:00:16;;;;;;;13.98;5.40;;;;;;;8.37;100.00;99300.78;4949359;28;20034;-66
2023/04/01 05:02:41;;;;;;;15.32;5.68;;;;;;;8.39;100.00;99308.59;4947873;28;20474;-67
2023/04/01 05:05:07;;;;;;;14.65;5.53;;;;;;;8.36;100.00;99314.63;4946644;28;20153;-67
2023/04/01 05:07:34;;;;;;;14.48;5.43;;;;;;;8.34;100.00;99306.84;4947704;28;20039;-67
2023/04/01 05:09:59;;;;;;;14.77;5.60;;;;;;;8.34;100.00;99316.31;4947292;28;20023;-67
2023/04/01 05:12:25;;;;;;;17.65;6.22;;;;;;;8.34;100.00;99321.50;4949298;28;20062;-67
2023/04/01 05:14:50;;;;;;;16.70;6.28;;;;;;;8.34;100.00;99321.50;4948035;28;20035;-67
2023/04/01 05:17:15;;;;;;;17.00;6.05;;;;;;;8.32;100.00;99318.06;4947639;28;20031;-67
2023/04/01 05:19:41;;;;;;;14.80;5.72;;;;;;;8.31;100.00;99324.97;4949311;28;20031;-67
2023/04/01 05:22:06;;;;;;;15.27;5.85;;;;;;;8.31;100.00;99327.56;4947624;28;20886;-67
2023/04/01 05:24:33;;;;;;;15.50;5.82;;;;;;;8.32;100.00;99333.63;4949665;28;20039;-66
2023/04/01 05:26:59;;;;;;;17.10;5.65;;;;;;;8.32;100.00;99336.22;4948095;28;20057;-67
2023/04/01 05:29:25;;;;;;;15.52;5.30;;;;;;;8.30;100.00;99336.22;4946690;28;20034;-66
2023/04/01 05:31:50;;;;;;;13.60;5.03;;;;;;;8.29;100.00;99341.38;4947935;28;20023;-66
2023/04/01 05:34:16;;;;;;;16.20;5.35;;;;;;;8.29;100.00;99354.34;4951734;28;20038;-67
2023/04/01 05:39:15;;;;;;;13.27;5.15;;;;;;;8.30;100.00;99356.09;5153864;23;20366;-72
2023/04/01 05:41:40;;;;;;;16.70;6.00;;;;;;;8.30;100.00;99356.97;4967745;28;20019;-72
2023/04/01 05:44:05;;;;;;;17.10;5.50;;;;;;;8.30;100.00;99359.56;4970548;28;20050;-72
2023/04/01 05:46:31;;;;;;;15.95;5.32;;;;;;;8.30;100.00;99358.72;4968346;28;20015;-72
2023/04/01 05:48:57;;;;;;;14.05;5.57;;;;;;;8.30;100.00;99369.94;4969943;28;20027;-72
2023/04/01 05:51:22;;;;;;;13.77;5.32;;;;;;;8.31;100.00;99373.41;4968125;28;20026;-72
2023/04/01 05:53:48;;;;;;;15.00;5.90;;;;;;;8.30;100.00;99376.88;4970000;28;20055;-72
2023/04/01 05:56:14;;;;;;;15.55;5.85;;;;;;;8.31;100.00;99376.00;4969336;28;20038;-72
2023/04/01 05:58:40;;;;;;;20.70;7.25;;;;;;;8.32;100.00;99381.19;4969346;28;20109;-72
2023/04/01 06:01:08;;;;;;;21.92;7.45;;;;;;;8.34;100.00;99383.81;4967984;28;20062;-72
2023/04/01 06:03:34;;;;;;;25.00;8.13;;;;;;;8.35;100.00;99389.00;4968292;28;20237;-72
2023/04/01 06:06:00;;;;;;;24.38;8.02;;;;;;;8.36;100.00;99393.34;4968324;28;20030;-72
2023/04/01 06:08:27;;;;;;;23.90;8.02;;;;;;;8.39;100.00;99400.28;4969575;28;20045;-72
2023/04/01 06:11:30;;;;;;;28.83;9.35;;;;;;;8.41;100.00;99400.31;4967915;28;20030;-72
2023/04/01 06:14:16;;;;;;;25.88;8.77;;;;;;;8.43;100.00;99411.56;4968945;28;20693;-72
2023/04/01 06:17:14;;;;;;;25.60;8.82;;;;;;;8.45;100.00;99418.53;4967138;28;20155;-72
2023/04/01 06:19:54;;;;;;;24.42;8.60;;;;;;;8.44;100.00;99419.41;4967888;28;20041;-71
2023/04/01 06:23:04;;;;;;;30.58;9.13;;;;;;;8.45;100.00;99422.88;4967975;28;20517;-72
2023/04/01 06:25:38;;;;;;;24.75;7.93;;;;;;;8.42;100.00;99418.50;4965582;28;20046;-72
2023/04/01 06:28:41;;;;;;;24.23;8.07;;;;;;;8.42;100.00;99426.28;4970979;28;20057;-72
2023/04/01 06:31:38;;;;;;;27.30;9.05;;;;;;;8.44;100.00;99429.78;4967490;28;20027;-72
2023/04/01 06:34:12;;;;;;;26.58;8.55;;;;;;;8.44;100.00;99431.47;4968280;28;20034;-72
2023/04/01 06:36:37;;;;;;;26.77;8.75;;;;;;;8.47;100.00;99437.63;4970498;28;20421;-67
2023/04/01 06:39:13;;;;;;;26.83;8.70;;;;;;;8.47;100.00;99442.81;4967957;28;20049;-66
2023/04/01 06:41:57;;;;;;;34.50;9.80;;;;;;;8.47;100.00;99440.22;4965053;28;20031;-66
2023/04/01 06:44:45;;;;;;;32.53;11.15;;;;;;;8.49;100.00;99440.22;4969407;28;20490;-67
2023/04/01 06:47:23;;;;;;;35.42;10.98;;;;;;;8.50;100.00;99445.44;4954213;28;20042;-67
2023/04/01 06:50:02;;;;;;;38.65;11.30;;;;;;;8.51;100.00;99446.28;4969266;28;20054;-67
2023/04/01 06:52:45;;;;;;;40.38;13.50;;;;;;;8.54;100.00;99456.69;4968389;28;20546;-66
2023/04/01 06:55:37;;;;;;;45.10;13.55;;;;;;;8.57;100.00;99455.88;4967747;28;20029;-66
2023/04/01 06:58:05;;;;;;;47.28;13.85;;;;;;;8.58;100.00;99463.66;4969720;28;20047;-67
2023/04/01 07:00:44;;;;;;;45.60;14.38;;;;;;;8.59;100.00;99465.41;4964851;28;20030;-66
2023/04/01 07:03:26;;;;;;;45.88;14.75;;;;;;;8.61;100.00;99471.47;4967574;28;20047;-66
2023/04/01 07:05:53;;;;;;;51.78;16.02;;;;;;;8.63;100.00;99477.56;4966662;28;20062;-67
2023/04/01 07:08:25;;;;;;;56.40;17.80;;;;;;;8.67;100.00;99481.91;4967081;28;20041;-67
2023/04/01 07:11:01;;;;;;;56.50;17.85;;;;;;;8.70;100.00;99475.88;4966715;28;20031;-67
2023/04/01 07:13:49;;;;;;;56.17;17.15;;;;;;;8.73;100.00;99477.66;4967722;28;20498;-67
2023/04/01 07:16:38;;;;;;;53.88;16.50;;;;;;;8.77;100.00;99482.00;4967029;28;20123;-67
2023/04/01 07:24:25;;;;;;;58.25;18.42;;;;;;;8.87;100.00;99497.69;4958911;28;20054;-72
2023/04/01 07:26:55;;;;;;;61.53;18.60;;;;;;;8.88;100.00;99494.22;4961816;28;20062;-71
2023/04/01 07:29:20;;;;;;;65.20;18.50;;;;;;;8.91;100.00;99506.38;4959733;28;20035;-72
2023/04/01 07:32:01;;;;;;;59.28;18.00;;;;;;;8.93;100.00;99506.41;4960748;28;20018;-72
2023/04/01 07:34:30;;;;;;;61.72;17.77;;;;;;;8.93;100.00;99509.00;4961675;28;20409;-71
2023/04/01 07:37:18;;;;;;;61.13;17.98;;;;;;;8.94;100.00;99521.13;4962003;28;20038;-72
2023/04/01 07:40:08;;;;;;;69.50;19.10;;;;;;;8.94;100.00;99515.94;4961166;28;20030;-72
2023/04/01 07:42:55;;;;;;;68.15;19.75;;;;;;;8.96;100.00;99529.78;4959767;28;20032;-71
2023/04/01 07:45:42;;;;;;;61.42;18.85;;;;;;;8.97;100.00;99526.34;4960877;28;20053;-71
2023/04/01 07:48:36;;;;;;;64.75;17.48;;;;;;;9.01;100.00;99530.72;4960964;28;20035;-71
2023/04/01 07:51:29;;;;;;;57.80;17.25;;;;;;;9.02;100.00;99533.34;4962284;28;20031;-71
2023/04/01 07:54:08;;;;;;;65.57;19.35;;;;;;;9.04;100.00;99538.53;4961017;28;20023;-72
2023/04/01 07:56:48;;;;;;;66.57;19.27;;;;;;;9.07;100.00;99543.75;4960636;28;20027;-71
2023/04/01 07:59:34;;;;;;;65.53;20.10;;;;;;;9.10;100.00;99548.13;4961629;28;20093;-71
2023/04/01 08:02:30;;;;;;;68.35;20.63;;;;;;;9.12;100.00;99554.19;4959477;28;20039;-71
2023/04/01 08:05:18;;;;;;;69.55;20.65;;;;;;;9.14;100.00;99555.94;4961488;28;20094;-71
2023/04/01 08:08:13;;;;;;;69.32;20.52;;;;;;;9.16;100.00;99561.16;4960686;28;20031;-72
2023/04/01 08:10:45;;;;;;;68.88;20.75;;;;;;;9.20;100.00;99561.19;4959052;28;20046;-71
2023/04/01 08:13:43;;;;;;;68.22;21.63;;;;;;;9.26;100.00;99577.72;4958804;28;20039;-71
2023/04/01 08:16:31;;;;;;;78.40;22.25;;;;;;;9.32;100.00;99575.16;5140001;23;20069;-69
2023/04/01 08:19:04;;;;;;;69.85;21.33;;;;;;;9.37;100.00;99581.25;5076481;23;20497;-68
2023/04/01 08:21:38;;;;;;;70.75;20.65;;;;;;;9.37;100.00;99578.63;5175276;23;20054;-68
2023/04/01 08:27:25;;;;;;;70.20;21.42;;;;;;;9.38;100.00;99590.78;5059317;23;20058;-69
2023/04/01 08:30:02;;;;;;;67.40;21.38;;;;;;;9.39;100.00;99589.94;4967955;28;20027;-69
2023/04/01 08:32:41;;;;;;;76.68;21.75;;;;;;;9.40;100.00;99594.28;4968363;28;20031;-69
2023/04/01 08:35:30;;;;;;;76.95;23.10;;;;;;;9.43;100.00;99590.81;4967975;28;20095;-68
2023/04/01 08:38:00;;;;;;;63.42;20.55;;;;;;;9.45;100.00;99592.56;4967216;28;20031;-69
2023/04/01 08:40:55;;;;;;;69.20;21.38;;;;;;;9.48;100.00;99603.00;4967699;28;20045;-69
2023/04/01 08:43:27;;;;;;;71.93;22.30;;;;;;;9.51;100.00;99605.63;4965383;28;20533;-69
2023/04/01 08:46:21;;;;;;;76.55;22.33;;;;;;;9.51;100.00;99609.97;4967732;28;20035;-69
2023/04/01 08:48:56;;;;;;;67.45;21.95;;;;;;;9.54;100.00;99615.19;4950772;28;20034;-68
2023/04/01 08:51:42;;;;;;;70.25;21.77;;;;;;;9.57;100.00;99625.59;4966818;28;20568;-68
2023/04/01 08:54:13;;;;;;;67.70;20.77;;;;;;;9.56;100.00;99619.53;4950435;28;20041;-69
2023/04/01 08:56:53;;;;;;;66.93;22.92;;;;;;;9.55;100.00;99636.00;4967920;28;20031;-68
2023/04/01 08:59:49;;;;;;;57.15;20.02;;;;;;;9.53;100.00;99627.31;4967199;28;20034;-68
2023/04/01 09:02:33;;;;;;;63.05;19.77;;;;;;;9.54;100.00;99628.19;4967498;28;20039;-68
2023/04/01 09:05:17;;;;;;;58.25;19.92;;;;;;;9.54;100.00;99644.69;4966202;28;20114;-68
2023/04/01 09:08:06;;;;;;;59.55;20.15;;;;;;;9.55;100.00;99646.41;4968012;28;20030;-68
2023/04/01 09:10:50;;;;;;;56.90;19.27;;;;;;;9.57;100.00;99649.00;4967585;28;20034;-68
2023/04/01 09:14:05;;;;;;;57.33;19.25;;;;;;;9.61;100.00;99652.53;4966686;28;20029;-68
2023/04/01 09:17:01;;;;;;;58.78;19.40;;;;;;;9.66;100.00;99661.22;4966533;28;20505;-68
2023/04/01 09:19:32;;;;;;;42.40;15.75;;;;;;;9.68;100.00;99656.91;4966603;28;20027;-68
2023/04/01 09:22:32;;;;;;;47.90;18.25;;;;;;;9.71;100.00;99660.41;4967077;28;20039;-68
2023/04/01 09:25:26;;;;;;;46.25;17.40;;;;;;;9.77;100.00;99669.13;4967014;28;20035;-68
2023/04/01 09:28:01;;;;;;;49.97;16.85;;;;;;;9.81;100.00;99666.53;4918429;29;20064;-68
2023/04/01 09:30:58;;;;;;;52.20;18.73;;;;;;;9.85;100.00;99670.06;4914852;29;20095;-68
2023/04/01 09:34:00;;;;;;;46.10;18.08;;;;;;;9.92;100.00;99679.63;4917485;29;20036;-68
2023/04/01 09:36:42;;;;;;;50.08;16.70;;;;;;;9.96;100.00;99670.13;4918278;29;20495;-68
2023/04/01 09:39:28;;;;;;;46.22;16.98;;;;;;;10.00;100.00;99675.34;4918309;29;20028;-69
2023/04/01 09:42:05;;;;;;;41.88;16.42;;;;;;;10.01;100.00;99677.09;4917479;29;20059;-68
2023/04/01 09:44:36;;;;;;;42.95;17.10;;;;;;;10.04;100.00;99681.47;4914871;29;20043;-68
2023/04/01 09:47:37;;;;;;;37.75;15.07;;;;;;;10.06;100.00;99684.94;4917865;29;21410;-68
2023/04/01 09:50:31;;;;;;;35.67;15.80;;;;;;;10.13;100.00;99691.94;4917532;29;20122;-68
2023/04/01 09:53:19;;;;;;;46.58;18.05;;;;;;;10.18;100.00;99692.84;4918021;29;20027;-68
2023/04/01 09:55:53;;;;;;;48.13;20.53;;;;;;;10.19;100.00;99696.31;4915961;29;20016;-68
2023/04/01 09:58:57;;;;;;;51.75;19.80;;;;;;;10.15;100.00;99694.53;4919519;29;20162;-68
2023/04/01 10:01:31;;;;;;;51.55;18.80;;;;;;;10.15;100.00;99700.59;4917609;29;20051;-68
2023/04/01 10:04:11;;;;;;;47.47;19.33;;;;;;;10.13;100.00;99697.13;4916887;29;20084;-68
2023/04/01 10:06:48;;;;;;;;;;;;;;;10.19;100.00;99704.97;4917502;29;20028;-68
2023/04/01 10:09:40;;;;;;;44.90;17.70;;;;;;;10.17;100.00;99704.09;4918049;29;19919;-68
2023/04/01 10:12:45;;;;;;;46.33;18.10;;;;;;;10.16;100.00;99712.75;4913532;29;20031;-68
2023/04/01 10:15:24;;;;;;;43.17;17.25;;;;;;;10.11;100.00;99704.06;4918098;29;20031;-68
2023/04/01 10:18:07;;;;;;;42.92;17.08;;;;;;;10.09;100.00;99710.97;4916947;29;20035;-69
2023/04/01 10:20:51;;;;;;;45.88;18.35;;;;;;;10.08;100.00;99719.66;4919860;29;20032;-68
2023/04/01 10:23:27;;;;;;;42.25;18.13;;;;;;;10.05;100.00;99715.31;4919408;29;20039;-68
2023/04/01 10:26:21;;;;;;;44.97;17.58;;;;;;;10.04;100.00;99726.56;4934589;28;20103;-69
2023/04/01 10:29:18;;;;;;;46.75;17.48;;;;;;;10.04;100.00;99734.38;4959234;28;20247;-69
2023/04/01 10:32:20;;;;;;;51.88;18.55;;;;;;;10.02;100.00;99728.31;4960385;28;20030;-69
2023/04/01 10:35:28;;;;;;;44.13;18.13;;;;;;;9.99;100.00;99730.84;4956022;28;20050;-68
2023/04/01 10:38:16;;;;;;;48.05;18.85;;;;;;;9.93;100.00;99723.00;4931179;28;20039;-68
2023/04/01 10:41:10;;;;;;;45.75;19.25;;;;;;;9.96;100.00;99730.81;4959434;28;20041;-69
2023/04/01 10:43:57;;;;;;;47.08;19.42;;;;;;;9.96;100.00;99732.56;4958998;28;20027;-68
2023/04/01 10:46:57;;;;;;;50.40;19.98;;;;;;;9.95;100.00;99741.22;4940663;28;20488;-69
2023/04/01 10:49:43;;;;;;;53.05;20.23;;;;;;;9.94;100.00;99740.38;4957929;28;20201;-68
2023/04/01 10:52:33;;;;;;;53.20;21.23;;;;;;;9.92;100.00;99744.66;4959490;28;20046;-68
2023/04/01 10:55:35;;;;;;;50.25;20.92;;;;;;;9.90;100.00;99742.06;4957950;28;20054;-68
2023/04/01 10:58:18;;;;;;;52.92;21.00;;;;;;;9.89;100.00;99750.75;4959650;28;20503;-69
2023/04/01 11:01:03;;;;;;;56.78;21.40;;;;;;;9.94;100.00;99757.72;4958848;28;20110;-69
2023/04/01 11:03:50;;;;;;;50.78;20.80;;;;;;;9.95;100.00;99751.63;4939013;28;20122;-67
2023/04/01 11:06:25;;;;;;;57.63;21.60;;;;;;;9.91;100.00;99758.56;4958903;28;20035;-68
2023/04/01 11:08:53;;;;;;;56.85;21.70;;;;;;;9.91;100.00;99761.16;4955873;28;20026;-68
2023/04/01 11:11:39;;;;;;;64.13;23.25;;;;;;;9.89;100.00;99758.56;4958795;28;20569;-68
2023/04/01 11:14:16;;;;;;;59.28;21.30;;;;;;;9.92;100.00;99766.38;4958738;28;20030;-68
2023/04/01 11:17:01;;;;;;;66.32;22.98;;;;;;;9.89;100.00;99768.06;4957402;28;20034;-68
2023/04/01 11:19:51;;;;;;;57.08;21.67;;;;;;;9.91;100.00;99774.16;4956814;28;20482;-68
2023/04/01 11:22:47;;;;;;;55.78;21.23;;;;;;;9.90;100.00;99773.28;4959170;28;20034;-68
2023/04/01 11:25:21;;;;;;;62.38;22.45;;;;;;;9.89;100.00;99775.88;4938984;28;20046;-68
2023/04/01 11:28:11;;;;;;;63.03;21.60;;;;;;;9.87;100.00;99777.59;4958156;28;20120;-68
2023/04/01 11:30:58;;;;;;;55.45;21.90;;;;;;;9.83;100.00;99779.28;4956185;28;20085;-68
2023/04/01 11:33:38;;;;;;;60.40;22.20;;;;;;;9.82;100.00;99782.75;4957383;28;20058;-68
2023/04/01 11:36:15;;;;;;;55.45;22.02;;;;;;;9.81;100.00;99788.81;4957306;28;20125;-68
2023/04/01 11:39:02;;;;;;;51.47;20.23;;;;;;;9.79;100.00;99787.94;4956102;28;20602;-68
2023/04/01 11:41:57;;;;;;;58.65;21.23;;;;;;;9.80;100.00;99792.28;4957018;28;20117;-68
2023/04/01 11:44:27;;;;;;;54.28;19.58;;;;;;;9.81;100.00;99804.44;4956940;28;20411;-69
2023/04/01 11:47:20;;;;;;;52.83;20.08;;;;;;;9.79;100.00;99807.88;4956014;28;20230;-68
2023/04/01 11:50:30;;;;;;;58.83;21.65;;;;;;;9.83;100.00;99801.84;4958146;28;20110;-69
2023/04/01 11:53:37;;;;;;;56.58;20.55;;;;;;;9.83;100.00;99812.25;4924194;28;20506;-69
2023/04/01 11:56:20;;;;;;;56.28;20.15;;;;;;;9.86;100.00;99812.28;4897150;29;20041;-68
2023/04/01 11:58:57;;;;;;;56.55;20.30;;;;;;;9.90;100.00;99824.47;4951772;28;20043;-68
2023/04/01 12:01:25;;;;;;;50.50;19.55;;;;;;;9.96;100.00;99818.44;4957938;28;20035;-68
2023/04/01 12:03:53;;;;;;;51.10;18.90;;;;;;;9.97;100.00;99826.25;4957060;28;20418;-67
2023/04/01 12:06:41;;;;;;;45.90;18.05;;;;;;;9.97;100.00;99826.25;4950929;28;20037;-67
2023/04/01 12:09:23;;;;;;;45.92;17.50;;;;;;;9.96;100.00;99828.84;4924103;28;20110;-67
2023/04/01 12:14:23;;;;;;;38.40;15.48;;;;;;;9.95;100.00;99832.31;4955691;28;20035;-67
2023/04/01 12:16:55;;;;;;;38.05;15.63;;;;;;;9.92;100.00;99836.63;4957822;28;20027;-67
2023/04/01 12:19:42;;;;;;;45.78;16.75;;;;;;;9.91;100.00;99842.69;4957680;28;20041;-67
2023/04/01 12:22:37;;;;;;;45.65;17.40;;;;;;;9.92;100.00;99840.94;4955919;28;20498;-67